createdAt,value
2022-08-31T00:02:39.004Z,100587.75
2022-08-31T00:05:05.935Z,100589.56
2022-08-31T00:07:34.830Z,100593.09
2022-08-31T00:10:13.971Z,100579.72
2022-08-31T00:12:44.678Z,100583.34
2022-08-31T00:15:12.688Z,100576.19
2022-08-31T00:17:39.566Z,100577.91
2022-08-31T00:20:06.643Z,100582.38
2022-08-31T00:22:33.214Z,100582.38
2022-08-31T00:24:59.824Z,100578.88
2022-08-31T00:27:26.421Z,100582.38
2022-08-31T00:29:53.010Z,100578.88
2022-08-31T00:32:21.388Z,100585.91
2022-08-31T00:34:49.568Z,100585.91
2022-08-31T00:37:16.185Z,100583.25
2022-08-31T00:39:42.743Z,100592.22
2022-08-31T00:42:09.437Z,100590.41
2022-08-31T00:44:36.077Z,100580.69
2022-08-31T00:47:02.864Z,100581.53
2022-08-31T00:49:31.280Z,100575.34
2022-08-31T00:52:07.032Z,100579.72
2022-08-31T00:54:35.931Z,100578.88
2022-08-31T00:57:02.817Z,100585.06
2022-08-31T00:59:29.483Z,100583.25
2022-08-31T01:01:56.113Z,100583.34
2022-08-31T01:04:22.750Z,100586.88
2022-08-31T01:06:49.577Z,100592.22
2022-08-31T01:09:16.357Z,100591.38
2022-08-31T01:11:42.963Z,100589.66
2022-08-31T01:14:10.923Z,100587.97
2022-08-31T01:16:52.262Z,100582.50
2022-08-31T01:19:34.106Z,100583.47
2022-08-31T01:22:35.383Z,100582.63
2022-08-31T01:25:01.987Z,100585.28
2022-08-31T01:27:30.756Z,100590.63
2022-08-31T01:30:01.208Z,100593.31
2022-08-31T01:32:27.791Z,100596.84
2022-08-31T01:34:54.383Z,100593.31
2022-08-31T01:37:29.196Z,100592.47
2022-08-31T01:39:56.840Z,100590.63
2022-08-31T01:42:23.468Z,100591.50
2022-08-31T01:44:59.987Z,100585.28
2022-08-31T01:47:26.592Z,100582.63
2022-08-31T01:49:57.063Z,100584.44
2022-08-31T01:52:27.806Z,100587.19
2022-08-31T01:54:54.949Z,100582.69
2022-08-31T01:57:33.597Z,100579.16
2022-08-31T02:00:02.127Z,100584.50
2022-08-31T02:02:28.786Z,100587.19
2022-08-31T02:04:55.504Z,100579.16
2022-08-31T02:07:22.100Z,100594.34
2022-08-31T02:09:48.704Z,100586.34
2022-08-31T02:12:15.296Z,100589.87
2022-08-31T02:14:41.924Z,100600.56
2022-08-31T02:17:08.888Z,100584.50
2022-08-31T02:19:35.506Z,100582.81
2022-08-31T02:22:02.095Z,100584.50
2022-08-31T02:24:28.730Z,100579.16
2022-08-31T02:26:55.299Z,100581.84
2022-08-31T02:29:22.127Z,100581.84
2022-08-31T02:31:48.786Z,100571.16
2022-08-31T02:34:17.210Z,100567.62
2022-08-31T02:36:45.311Z,100572.87
2022-08-31T02:39:12.455Z,100576.50
2022-08-31T02:41:41.430Z,100579.16
2022-08-31T02:44:08.054Z,100574.78
2022-08-31T02:46:34.812Z,100584.50
2022-08-31T02:49:01.776Z,100585.47
2022-08-31T02:51:28.388Z,100588.16
2022-08-31T02:53:54.991Z,100582.81
2022-08-31T02:56:22.091Z,100580.97
2022-08-31T02:58:54.754Z,100572.97
2022-08-31T03:01:22.819Z,100572.13
2022-08-31T03:03:49.909Z,100573.81
2022-08-31T03:06:16.851Z,100573.81
2022-08-31T03:08:43.983Z,100571.16
2022-08-31T03:11:10.676Z,100577.47
2022-08-31T03:13:38.141Z,100581.94
2022-08-31T03:16:05.424Z,100575.63
2022-08-31T03:18:32.894Z,100583.66
2022-08-31T03:20:59.499Z,100589.13
2022-08-31T03:23:26.159Z,100591.78
2022-08-31T03:25:52.803Z,100593.50
2022-08-31T03:28:19.385Z,100594.47
2022-08-31T03:30:46.045Z,100598.84
2022-08-31T03:33:12.791Z,100598.00
2022-08-31T03:35:43.700Z,100593.50
2022-08-31T03:38:12.678Z,100598.84
2022-08-31T03:40:41.010Z,100598.00
2022-08-31T03:43:16.563Z,100592.66
2022-08-31T03:45:43.062Z,100602.47
2022-08-31T03:48:12.779Z,100594.47
2022-08-31T03:50:40.035Z,100608.69
2022-08-31T03:53:07.469Z,100593.63
2022-08-31T03:55:34.503Z,100583.78
2022-08-31T03:58:01.123Z,100595.44
2022-08-31T04:00:28.437Z,100585.66
2022-08-31T04:02:59.688Z,100590.09
2022-08-31T04:05:27.690Z,100586.56
2022-08-31T04:07:54.267Z,100592.75
2022-08-31T04:10:21.108Z,100592.75
2022-08-31T04:12:47.706Z,100599.03
2022-08-31T04:15:14.523Z,100599.03
2022-08-31T04:17:41.131Z,100600.84
2022-08-31T04:20:08.230Z,100606.19
2022-08-31T04:22:34.820Z,100608.88
2022-08-31T04:25:01.396Z,100602.69
2022-08-31T04:27:27.980Z,100601.72
2022-08-31T04:29:54.543Z,100603.44
2022-08-31T04:32:21.668Z,100603.53
2022-08-31T04:34:48.256Z,100605.34
2022-08-31T04:37:22.668Z,100602.69
2022-08-31T04:39:49.447Z,100606.31
2022-08-31T04:42:17.916Z,100609.84
2022-08-31T04:44:44.483Z,100616.03
2022-08-31T04:47:11.116Z,100614.16
2022-08-31T04:49:37.747Z,100600.72
2022-08-31T04:52:04.325Z,100617.25
2022-08-31T04:54:30.916Z,100618.59
2022-08-31T04:56:59.179Z,100619.16
2022-08-31T04:59:27.403Z,100616.13
2022-08-31T05:01:54.738Z,100616.31
2022-08-31T05:04:24.543Z,100609.44
2022-08-31T05:06:51.284Z,100607.81
2022-08-31T05:09:22.615Z,100606.22
2022-08-31T05:11:50.499Z,100615.34
2022-08-31T05:14:17.086Z,100614.00
2022-08-31T05:16:43.745Z,100612.28
2022-08-31T05:19:10.393Z,100610.37
2022-08-31T05:21:39.067Z,100618.38
2022-08-31T05:24:07.782Z,100614.09
2022-08-31T05:26:36.114Z,100620.28
2022-08-31T05:29:06.316Z,100617.53
2022-08-31T05:31:33.800Z,100619.44
2022-08-31T05:34:00.482Z,100622.28
2022-08-31T05:36:27.096Z,100625.16
2022-08-31T05:38:56.532Z,100620.06
2022-08-31T05:41:27.836Z,100630.16
2022-08-31T05:43:54.415Z,100626.59
2022-08-31T05:46:24.039Z,100628.34
2022-08-31T05:48:51.078Z,100616.81
2022-08-31T05:51:18.351Z,100622.16
2022-08-31T05:53:45.211Z,100627.66
2022-08-31T05:56:14.105Z,100629.75
2022-08-31T05:58:41.657Z,100626.22
2022-08-31T06:01:21.511Z,100625.44
2022-08-31T06:03:48.151Z,100623.47
2022-08-31T06:06:14.790Z,100629.59
2022-08-31T06:08:41.626Z,100623.19
2022-08-31T06:11:13.630Z,100619.50
2022-08-31T06:13:40.718Z,100623.87
2022-08-31T06:16:08.357Z,100620.25
2022-08-31T06:18:36.355Z,100630.75
2022-08-31T06:21:09.072Z,100626.25
2022-08-31T06:23:39.656Z,100631.53
2022-08-31T06:26:08.016Z,100633.34
2022-08-31T06:28:34.579Z,100624.38
2022-08-31T06:31:01.602Z,100627.91
2022-08-31T06:33:29.296Z,100631.44
2022-08-31T06:35:56.407Z,100622.50
2022-08-31T06:38:24.355Z,100631.25
2022-08-31T06:40:50.983Z,100624.88
2022-08-31T06:43:17.838Z,100631.94
2022-08-31T06:45:44.669Z,100630.97
2022-08-31T06:48:11.502Z,100627.44
2022-08-31T06:50:40.458Z,100631.94
2022-08-31T06:53:07.352Z,100632.78
2022-08-31T06:55:34.879Z,100634.50
2022-08-31T06:58:01.661Z,100645.69
2022-08-31T07:00:28.296Z,100639.28
2022-08-31T07:02:57.777Z,100640.81
2022-08-31T07:05:24.970Z,100641.50
2022-08-31T07:07:51.670Z,100640.34
2022-08-31T07:10:19.410Z,100637.47
2022-08-31T07:12:46.132Z,100645.41
2022-08-31T07:15:12.706Z,100647.88
2022-08-31T07:17:39.317Z,100645.97
2022-08-31T07:20:06.451Z,100645.03
2022-08-31T07:22:33.046Z,100645.03
2022-08-31T07:24:59.632Z,100652.06
2022-08-31T07:27:26.290Z,100641.22
2022-08-31T07:29:52.876Z,100649.12
2022-08-31T07:32:19.479Z,100647.13
2022-08-31T07:34:46.049Z,100647.03
2022-08-31T07:37:34.559Z,100645.97
2022-08-31T07:40:20.737Z,100646.72
2022-08-31T07:42:47.368Z,100641.22
2022-08-31T07:45:25.824Z,100637.47
2022-08-31T07:47:56.327Z,100639.97
2022-08-31T07:50:23.072Z,100639.88
2022-08-31T07:52:56.579Z,100644.19
2022-08-31T07:55:23.938Z,100640.56
2022-08-31T07:57:53.327Z,100638.62
2022-08-31T08:00:22.282Z,100636.75
2022-08-31T08:02:53.273Z,100641.13
2022-08-31T08:05:27.709Z,100637.41
2022-08-31T08:07:57.608Z,100633.78
2022-08-31T08:10:24.285Z,100630.03
2022-08-31T08:13:04.864Z,100623.72
2022-08-31T08:15:41.703Z,100627.19
2022-08-31T08:18:11.023Z,100621.81
2022-08-31T08:20:39.029Z,100614.56
2022-08-31T08:23:14.101Z,100616.31
2022-08-31T08:25:43.155Z,100619.72
2022-08-31T08:28:28.943Z,100612.44
2022-08-31T08:31:01.501Z,100611.50
2022-08-31T08:33:29.025Z,100616.75
2022-08-31T08:35:59.565Z,100610.44
2022-08-31T08:38:27.031Z,100605.88
2022-08-31T08:40:54.429Z,100616.56
2022-08-31T08:43:27.630Z,100616.44
2022-08-31T08:45:57.364Z,100611.84
2022-08-31T08:48:28.171Z,100610.03
2022-08-31T08:50:54.853Z,100619.78
2022-08-31T08:53:25.843Z,100617.88
2022-08-31T08:55:52.491Z,100600.00
2022-08-31T08:58:19.317Z,100597.31
2022-08-31T09:00:51.553Z,100599.94
2022-08-31T09:03:44.243Z,100598.97
2022-08-31T09:06:19.868Z,100600.66
2022-08-31T09:08:57.252Z,100591.69
2022-08-31T09:11:27.343Z,100593.37
2022-08-31T09:14:28.675Z,100592.47
2022-08-31T09:17:01.255Z,100590.53
2022-08-31T09:19:27.909Z,100589.47
2022-08-31T09:21:56.339Z,100592.03
2022-08-31T09:24:27.959Z,100574.19
2022-08-31T09:27:19.442Z,100581.22
2022-08-31T09:29:45.881Z,100580.28
2022-08-31T09:32:23.028Z,100573.13
2022-08-31T09:35:01.454Z,100569.50
2022-08-31T09:37:33.449Z,100568.53
2022-08-31T09:40:23.273Z,100562.31
2022-08-31T09:43:23.912Z,100566.50
2022-08-31T09:46:08.279Z,100557.53
2022-08-31T09:48:45.643Z,100552.91
2022-08-31T09:51:36.114Z,100558.38
2022-08-31T09:54:24.496Z,100553.59
2022-08-31T09:56:55.653Z,100552.88
2022-08-31T09:59:34.198Z,100548.97
2022-08-31T10:02:02.379Z,100546.47
2022-08-31T10:04:36.745Z,100538.25
2022-08-31T10:07:31.419Z,100535.41
2022-08-31T10:10:02.929Z,100540.16
2022-08-31T10:12:49.259Z,100531.94
2022-08-31T10:15:33.499Z,100526.97
2022-08-31T10:18:11.969Z,100531.72
2022-08-31T10:20:42.452Z,100531.34
2022-08-31T10:23:19.152Z,100525.44
2022-08-31T10:25:52.629Z,100517.72
2022-08-31T10:28:37.308Z,100514.38
2022-08-31T10:31:07.552Z,100506.56
2022-08-31T10:34:08.954Z,100509.50
2022-08-31T10:36:36.909Z,100509.88
2022-08-31T10:39:03.722Z,100506.44
2022-08-31T10:41:33.251Z,100495.94
2022-08-31T10:44:09.202Z,100494.16
2022-08-31T10:46:35.853Z,100484.53
2022-08-31T10:49:04.094Z,100476.69
2022-08-31T10:51:34.742Z,100482.22
2022-08-31T10:54:54.604Z,100484.97
2022-08-31T10:57:39.916Z,100479.12
2022-08-31T11:00:41.952Z,100479.50
2022-08-31T11:03:27.701Z,100487.56
2022-08-31T11:06:00.667Z,100474.25
2022-08-31T11:08:54.097Z,100472.62
2022-08-31T11:12:06.892Z,100464.75
2022-08-31T11:15:11.172Z,100474.78
2022-08-31T11:18:14.699Z,100477.37
2022-08-31T11:20:57.272Z,100463.25
2022-08-31T11:23:59.352Z,100468.69
2022-08-31T11:26:31.934Z,100459.94
2022-08-31T11:29:01.460Z,100458.13
2022-08-31T11:31:30.404Z,100468.84
2022-08-31T11:34:15.670Z,100463.72
2022-08-31T11:36:49.997Z,100461.06
2022-08-31T11:39:35.572Z,100456.59
2022-08-31T11:42:32.433Z,100457.44
2022-08-31T11:45:06.820Z,100453.91
2022-08-31T11:47:37.677Z,100451.50
2022-08-31T11:50:09.675Z,100452.34
2022-08-31T11:52:43.355Z,100452.50
2022-08-31T11:55:20.994Z,100451.00
2022-08-31T11:58:11.997Z,100453.03
2022-08-31T12:00:46.497Z,100451.91
2022-08-31T12:03:43.831Z,100449.34
2022-08-31T12:06:32.202Z,100450.09
2022-08-31T12:09:19.219Z,100450.37
2022-08-31T12:11:59.510Z,100450.13
2022-08-31T12:14:51.182Z,100448.50
2022-08-31T12:17:21.796Z,100443.50
2022-08-31T12:20:01.859Z,100433.81
2022-08-31T12:23:02.454Z,100435.72
2022-08-31T12:25:55.850Z,100424.19
2022-08-31T12:28:43.592Z,100426.94
2022-08-31T12:31:13.304Z,100426.25
2022-08-31T12:33:47.755Z,100430.72
2022-08-31T12:36:19.251Z,100422.66
2022-08-31T12:38:46.181Z,100419.06
2022-08-31T12:41:13.378Z,100417.16
2022-08-31T12:43:43.369Z,100416.19
2022-08-31T12:46:16.081Z,100418.19
2022-08-31T12:48:59.796Z,100410.28
2022-08-31T12:51:46.240Z,100424.28
2022-08-31T12:54:40.095Z,100415.34
2022-08-31T12:57:20.145Z,100411.53
2022-08-31T13:00:03.820Z,100403.75
2022-08-31T13:02:38.120Z,100391.50
2022-08-31T13:05:25.270Z,100393.63
2022-08-31T13:07:52.072Z,100398.50
2022-08-31T13:10:31.304Z,100399.84
2022-08-31T13:13:05.828Z,100393.28
2022-08-31T13:15:39.086Z,100386.69
2022-08-31T13:18:10.895Z,100392.72
2022-08-31T13:20:43.255Z,100392.44
2022-08-31T13:23:16.134Z,100405.47
2022-08-31T13:25:42.938Z,100400.00
2022-08-31T13:28:15.438Z,100396.28
2022-08-31T13:30:42.189Z,100394.28
2022-08-31T13:33:31.311Z,100400.41
2022-08-31T13:36:04.790Z,100397.53
2022-08-31T13:38:42.500Z,100387.66
2022-08-31T13:41:29.783Z,100383.91
2022-08-31T13:43:59.139Z,100387.25
2022-08-31T13:46:41.992Z,100391.53
2022-08-31T13:49:39.548Z,100388.69
2022-08-31T13:52:08.083Z,100380.50
2022-08-31T13:54:35.620Z,100380.28
2022-08-31T13:57:22.606Z,100381.06
2022-08-31T13:59:49.373Z,100375.63
2022-08-31T14:02:16.167Z,100368.41
2022-08-31T14:04:49.446Z,100374.47
2022-08-31T14:07:25.717Z,100366.37
2022-08-31T14:10:20.237Z,100360.00
2022-08-31T14:13:04.016Z,100366.06
2022-08-31T14:15:40.969Z,100365.13
2022-08-31T14:18:26.792Z,100368.56
2022-08-31T14:21:19.935Z,100367.59
2022-08-31T14:24:02.538Z,100368.25
2022-08-31T14:26:34.054Z,100367.19
2022-08-31T14:29:10.544Z,100363.59
2022-08-31T14:31:49.084Z,100353.66
2022-08-31T14:34:24.758Z,100357.06
2022-08-31T14:37:22.201Z,100366.81
2022-08-31T14:40:07.435Z,100358.72
2022-08-31T14:42:37.114Z,100351.44
2022-08-31T14:45:05.038Z,100354.03
2022-08-31T14:47:34.448Z,100357.47
2022-08-31T14:50:06.821Z,100344.06
2022-08-31T14:52:52.922Z,100356.34
2022-08-31T14:55:20.137Z,100343.84
2022-08-31T14:57:58.298Z,100331.28
2022-08-31T15:00:25.444Z,100339.16
2022-08-31T15:02:55.198Z,100340.03
2022-08-31T15:05:23.328Z,100336.38
2022-08-31T15:07:51.169Z,100340.69
2022-08-31T15:10:19.143Z,100338.87
2022-08-31T15:12:46.100Z,100340.47
2022-08-31T15:15:14.445Z,100329.78
2022-08-31T15:17:41.085Z,100338.56
2022-08-31T15:20:08.530Z,100337.59
2022-08-31T15:22:40.528Z,100342.81
2022-08-31T15:25:12.558Z,100330.34
2022-08-31T15:27:41.589Z,100329.41
2022-08-31T15:30:10.607Z,100330.12
2022-08-31T15:32:43.711Z,100331.84
2022-08-31T15:35:14.192Z,100332.69
2022-08-31T15:37:41.277Z,100333.47
2022-08-31T15:40:10.132Z,100335.19
2022-08-31T15:42:39.808Z,100326.19
2022-08-31T15:45:07.243Z,100327.94
2022-08-31T15:47:54.038Z,100327.94
2022-08-31T15:50:23.212Z,100327.81
2022-08-31T15:52:51.244Z,100329.53
2022-08-31T15:55:21.751Z,100324.06
2022-08-31T15:57:48.683Z,100329.41
2022-08-31T16:00:15.455Z,100321.31
2022-08-31T16:02:42.126Z,100317.69
2022-08-31T16:05:09.876Z,100322.06
2022-08-31T16:07:36.642Z,100325.59
2022-08-31T16:10:11.238Z,100321.09
2022-08-31T16:12:39.384Z,100332.63
2022-08-31T16:15:06.473Z,100324.53
2022-08-31T16:17:33.042Z,100328.06
2022-08-31T16:19:59.622Z,100322.63
2022-08-31T16:22:30.672Z,100323.47
2022-08-31T16:24:57.972Z,100326.97
2022-08-31T16:27:24.534Z,100316.31
2022-08-31T16:29:51.620Z,100330.44
2022-08-31T16:32:18.655Z,100326.91
2022-08-31T16:34:45.391Z,100326.78
2022-08-31T16:37:11.972Z,100323.16
2022-08-31T16:39:40.818Z,100321.34
2022-08-31T16:42:08.535Z,100330.22
2022-08-31T16:44:36.964Z,100323.94
2022-08-31T16:47:04.531Z,100325.63
2022-08-31T16:49:33.640Z,100322.84
2022-08-31T16:52:06.324Z,100330.00
2022-08-31T16:54:34.011Z,100325.53
2022-08-31T16:57:00.854Z,100328.09
2022-08-31T16:59:28.495Z,100337.91
2022-08-31T17:01:55.147Z,100334.31
2022-08-31T17:04:41.480Z,100346.69
2022-08-31T17:07:10.804Z,100346.69
2022-08-31T17:09:37.959Z,100346.56
2022-08-31T17:12:07.633Z,100345.72
2022-08-31T17:14:35.965Z,100349.16
2022-08-31T17:17:05.786Z,100342.00
2022-08-31T17:19:39.611Z,100349.16
2022-08-31T17:22:07.421Z,100351.72
2022-08-31T17:24:38.531Z,100356.09
2022-08-31T17:27:08.814Z,100342.75
2022-08-31T17:29:43.720Z,100352.56
2022-08-31T17:32:11.799Z,100353.31
2022-08-31T17:34:38.574Z,100355.06
2022-08-31T17:37:07.566Z,100356.88
2022-08-31T17:39:34.166Z,100361.25
2022-08-31T17:42:00.979Z,100359.44
2022-08-31T17:44:30.822Z,100356.75
2022-08-31T17:46:59.335Z,100360.28
2022-08-31T17:49:26.810Z,100352.28
2022-08-31T17:51:55.150Z,100365.53
2022-08-31T17:54:32.619Z,100375.28
2022-08-31T17:57:05.539Z,100376.22
2022-08-31T17:59:42.920Z,100380.59
2022-08-31T18:02:11.622Z,100392.19
2022-08-31T18:04:38.468Z,100388.53
2022-08-31T18:07:06.072Z,100384.91
2022-08-31T18:09:34.162Z,100384.06
2022-08-31T18:12:01.356Z,100385.75
2022-08-31T18:14:29.290Z,100391.94
2022-08-31T18:16:56.395Z,100392.81
2022-08-31T18:19:27.777Z,100392.81
2022-08-31T18:21:55.850Z,100394.53
2022-08-31T18:24:22.559Z,100391.88
2022-08-31T18:26:50.025Z,100399.87
2022-08-31T18:29:19.595Z,100402.44
2022-08-31T18:31:50.304Z,100403.31
2022-08-31T18:34:20.455Z,100412.16
2022-08-31T18:36:47.912Z,100413.03
2022-08-31T18:39:40.784Z,100413.87
2022-08-31T18:42:26.692Z,100412.06
2022-08-31T18:45:11.622Z,100412.06
2022-08-31T18:47:38.176Z,100412.94
2022-08-31T18:50:04.953Z,100416.47
2022-08-31T18:52:31.998Z,100420.84
2022-08-31T18:54:58.694Z,100423.50
2022-08-31T18:57:26.552Z,100423.50
2022-08-31T18:59:53.414Z,100420.84
2022-08-31T19:02:21.283Z,100424.25
2022-08-31T19:04:50.932Z,100424.25
2022-08-31T19:07:17.787Z,100429.59
2022-08-31T19:09:44.806Z,100427.78
2022-08-31T19:12:16.810Z,100433.97
2022-08-31T19:14:45.128Z,100436.66
2022-08-31T19:17:11.849Z,100432.19
2022-08-31T19:19:38.488Z,100442.78
2022-08-31T19:22:05.130Z,100450.78
2022-08-31T19:24:33.050Z,100450.78
2022-08-31T19:26:59.920Z,100448.97
2022-08-31T19:29:28.945Z,100454.31
2022-08-31T19:31:56.428Z,100453.34
2022-08-31T19:34:26.891Z,100458.81
2022-08-31T19:36:55.438Z,100455.16
2022-08-31T19:39:25.344Z,100461.38
2022-08-31T19:41:53.765Z,100465.75
2022-08-31T19:44:22.271Z,100465.75
2022-08-31T19:46:53.030Z,100461.28
2022-08-31T19:49:19.765Z,100462.12
2022-08-31T19:51:51.797Z,100459.47
2022-08-31T19:54:19.089Z,100468.34
2022-08-31T19:56:45.885Z,100463.00
2022-08-31T19:59:18.033Z,100463.84
2022-08-31T20:01:45.722Z,100469.19
2022-08-31T20:04:16.696Z,100467.37
2022-08-31T20:06:45.328Z,100454.00
2022-08-31T20:09:12.293Z,100460.19
2022-08-31T20:11:39.067Z,100458.38
2022-08-31T20:14:06.143Z,100463.72
2022-08-31T20:16:34.520Z,100471.75
2022-08-31T20:19:03.533Z,100462.75
2022-08-31T20:21:32.481Z,100473.47
2022-08-31T20:24:02.855Z,100470.78
2022-08-31T20:26:33.304Z,100462.75
2022-08-31T20:29:09.368Z,100467.19
2022-08-31T20:31:38.784Z,100465.44
2022-08-31T20:34:05.601Z,100464.50
2022-08-31T20:36:32.530Z,100467.19
2022-08-31T20:39:14.473Z,100461.81
2022-08-31T20:41:46.290Z,100460.87
2022-08-31T20:44:18.402Z,100459.91
2022-08-31T20:47:11.438Z,100461.72
2022-08-31T20:49:40.930Z,100460.75
2022-08-31T20:52:08.353Z,100463.41
2022-08-31T20:54:35.174Z,100469.62
2022-08-31T20:57:02.643Z,100474.13
2022-08-31T20:59:29.359Z,100475.81
2022-08-31T21:01:59.696Z,100477.63
2022-08-31T21:04:28.990Z,100468.66
2022-08-31T21:06:57.770Z,100472.22
2022-08-31T21:09:25.129Z,100471.31
2022-08-31T21:11:51.758Z,100472.22
2022-08-31T21:14:20.112Z,100474.00
2022-08-31T21:16:47.011Z,100476.59
2022-08-31T21:19:17.946Z,100478.41
2022-08-31T21:21:45.455Z,100483.75
2022-08-31T21:24:14.029Z,100483.75
2022-08-31T21:26:43.332Z,100482.78
2022-08-31T21:29:11.216Z,100488.13
2022-08-31T21:31:47.900Z,100485.47
2022-08-31T21:34:19.757Z,100480.97
2022-08-31T21:36:46.663Z,100480.97
2022-08-31T21:39:15.989Z,100487.16
2022-08-31T21:41:44.105Z,100487.16
2022-08-31T21:44:15.385Z,100492.53
2022-08-31T21:46:43.341Z,100488.88
2022-08-31T21:49:12.470Z,100479.16
2022-08-31T21:51:52.646Z,100480.87
2022-08-31T21:54:21.085Z,100479.03
2022-08-31T21:56:51.918Z,100470.16
2022-08-31T21:59:19.560Z,100471.91
2022-08-31T22:01:46.364Z,100471.91
2022-08-31T22:04:13.999Z,100473.69
2022-08-31T22:06:42.697Z,100478.09
2022-08-31T22:09:12.005Z,100470.94
2022-08-31T22:11:41.521Z,100465.59
2022-08-31T22:14:09.557Z,100468.25
2022-08-31T22:16:38.613Z,100469.12
2022-08-31T22:19:10.627Z,100468.25
2022-08-31T22:21:37.186Z,100471.78
2022-08-31T22:24:06.607Z,100470.81
2022-08-31T22:26:36.149Z,100478.00
2022-08-31T22:29:04.646Z,100480.66
2022-08-31T22:31:34.101Z,100484.19
2022-08-31T22:34:00.712Z,100478.84
2022-08-31T22:36:32.332Z,100480.56
2022-08-31T22:39:03.149Z,100479.69
2022-08-31T22:41:31.982Z,100484.06
2022-08-31T22:43:58.693Z,100480.56
2022-08-31T22:46:25.559Z,100486.75
2022-08-31T22:48:52.171Z,100492.09
2022-08-31T22:51:18.792Z,100494.78
2022-08-31T22:53:46.570Z,100494.78
2022-08-31T22:56:16.727Z,100495.75
2022-08-31T22:58:43.700Z,100494.78
2022-08-31T23:01:21.051Z,100507.19
2022-08-31T23:03:51.194Z,100509.88
2022-08-31T23:06:23.437Z,100509.03
2022-08-31T23:08:50.855Z,100513.41
2022-08-31T23:11:19.076Z,100522.28
2022-08-31T23:13:52.985Z,100518.75
2022-08-31T23:16:20.344Z,100516.94
2022-08-31T23:18:49.620Z,100518.63
2022-08-31T23:21:17.971Z,100523.12
2022-08-31T23:23:44.930Z,100530.31
2022-08-31T23:26:11.507Z,100537.34
2022-08-31T23:28:38.266Z,100524.94
2022-08-31T23:31:07.345Z,100528.37
2022-08-31T23:33:35.016Z,100542.59
2022-08-31T23:36:02.178Z,100534.69
2022-08-31T23:38:31.591Z,100537.34
2022-08-31T23:40:58.207Z,100538.22
2022-08-31T23:43:26.821Z,100540.03
2022-08-31T23:45:55.280Z,100544.41
2022-08-31T23:48:23.050Z,100546.22
2022-08-31T23:50:50.985Z,100560.44
2022-08-31T23:53:17.737Z,100556.06
2022-08-31T23:55:45.121Z,100561.41
2022-08-31T23:58:13.949Z,100557.88
